createdAt,value
2023-02-09T00:00:48.298Z,24.90
2023-02-09T00:01:50.495Z,25.20
2023-02-09T00:02:52.697Z,27.33
2023-02-09T00:03:54.966Z,25.20
2023-02-09T00:04:57.204Z,24.83
2023-02-09T00:06:03.648Z,23.85
2023-02-09T00:07:06.039Z,29.05
2023-02-09T00:08:08.202Z,25.38
2023-02-09T00:09:10.834Z,26.30
2023-02-09T00:10:13.200Z,25.42
2023-02-09T00:11:43.065Z,26.45
2023-02-09T00:13:04.005Z,27.50
2023-02-09T00:14:06.203Z,26.40
2023-02-09T00:15:09.029Z,26.60
2023-02-09T00:16:11.505Z,25.73
2023-02-09T00:17:14.008Z,25.25
2023-02-09T00:18:16.747Z,26.05
2023-02-09T00:19:20.468Z,26.30
2023-02-09T00:20:22.875Z,29.90
2023-02-09T00:21:25.063Z,30.52
2023-02-09T00:22:27.335Z,27.38
2023-02-09T00:23:31.766Z,28.83
2023-02-09T00:24:33.985Z,27.90
2023-02-09T00:25:39.267Z,25.73
2023-02-09T00:26:42.200Z,27.60
2023-02-09T00:27:44.398Z,32.80
2023-02-09T00:28:46.584Z,27.67
2023-02-09T00:29:48.841Z,30.50
2023-02-09T00:30:52.889Z,26.30
2023-02-09T00:32:02.141Z,29.05
2023-02-09T00:33:04.601Z,27.92
2023-02-09T00:34:06.928Z,29.85
2023-02-09T00:35:09.367Z,27.58
2023-02-09T00:36:13.609Z,33.13
2023-02-09T00:37:16.418Z,26.13
2023-02-09T00:38:21.118Z,29.40
2023-02-09T00:39:24.000Z,28.33
2023-02-09T00:40:26.223Z,31.85
2023-02-09T00:41:54.678Z,33.55
2023-02-09T00:42:57.087Z,32.05
2023-02-09T00:43:59.621Z,29.15
2023-02-09T00:45:01.888Z,33.65
2023-02-09T00:46:04.424Z,27.73
2023-02-09T00:47:08.379Z,32.42
2023-02-09T00:48:10.556Z,27.20
2023-02-09T00:49:12.757Z,28.02
2023-02-09T00:50:15.237Z,29.48
2023-02-09T00:51:17.559Z,30.60
2023-02-09T00:52:19.808Z,30.08
2023-02-09T00:53:22.613Z,28.67
2023-02-09T00:54:25.102Z,29.10
2023-02-09T00:55:27.652Z,30.20
2023-02-09T00:56:29.897Z,28.85
2023-02-09T00:57:32.771Z,27.60
2023-02-09T00:58:35.239Z,26.88
2023-02-09T00:59:40.636Z,30.20
2023-02-09T01:00:44.782Z,27.17
2023-02-09T01:01:47.679Z,27.95
2023-02-09T01:02:50.194Z,28.95
2023-02-09T01:03:52.586Z,31.45
2023-02-09T01:04:55.791Z,29.63
2023-02-09T01:05:59.759Z,27.23
2023-02-09T01:07:03.303Z,30.02
2023-02-09T01:08:05.562Z,29.67
2023-02-09T01:09:07.986Z,25.88
2023-02-09T01:10:11.082Z,32.03
2023-02-09T01:11:15.328Z,29.73
2023-02-09T01:12:17.613Z,34.28
2023-02-09T01:13:19.780Z,31.50
2023-02-09T01:14:22.239Z,29.13
2023-02-09T01:15:24.651Z,29.20
2023-02-09T01:16:28.907Z,28.55
2023-02-09T01:17:31.263Z,28.42
2023-02-09T01:18:33.990Z,32.75
2023-02-09T01:19:37.835Z,32.15
2023-02-09T01:20:43.526Z,30.23
2023-02-09T01:21:47.773Z,27.88
2023-02-09T01:22:50.618Z,29.38
2023-02-09T01:23:52.839Z,27.67
2023-02-09T01:24:55.030Z,29.02
2023-02-09T01:26:08.658Z,26.20
2023-02-09T01:27:10.854Z,24.98
2023-02-09T01:28:13.305Z,31.42
2023-02-09T01:29:18.459Z,32.08
2023-02-09T01:30:20.717Z,30.60
2023-02-09T01:31:32.427Z,31.77
2023-02-09T01:32:36.575Z,31.38
2023-02-09T01:33:38.776Z,29.10
2023-02-09T01:34:41.089Z,27.25
2023-02-09T01:35:43.373Z,29.23
2023-02-09T01:36:46.220Z,30.48
2023-02-09T01:37:48.371Z,28.80
2023-02-09T01:38:51.830Z,33.17
2023-02-09T01:39:53.987Z,27.50
2023-02-09T01:40:56.221Z,30.90
2023-02-09T01:41:58.754Z,29.35
2023-02-09T01:43:00.972Z,26.73
2023-02-09T01:44:06.298Z,30.05
2023-02-09T01:45:50.168Z,27.38
2023-02-09T01:46:52.860Z,34.85
2023-02-09T01:47:59.932Z,26.73
2023-02-09T01:49:08.274Z,29.15
2023-02-09T01:50:11.635Z,29.23
2023-02-09T01:51:14.368Z,26.58
2023-02-09T01:52:21.030Z,28.08
2023-02-09T01:53:23.456Z,26.20
2023-02-09T01:54:39.939Z,27.83
2023-02-09T01:55:57.246Z,27.70
2023-02-09T01:57:05.363Z,26.08
2023-02-09T01:58:15.591Z,31.02
2023-02-09T01:59:19.063Z,26.33
2023-02-09T02:00:22.737Z,32.75
2023-02-09T02:01:26.731Z,30.08
2023-02-09T02:02:29.555Z,29.88
2023-02-09T02:03:32.548Z,25.88
2023-02-09T02:04:37.011Z,28.17
2023-02-09T02:05:42.381Z,26.05
2023-02-09T02:06:45.300Z,26.90
2023-02-09T02:07:59.715Z,27.10
2023-02-09T02:09:12.299Z,29.08
2023-02-09T02:10:14.796Z,29.55
2023-02-09T02:11:18.137Z,25.73
2023-02-09T02:12:20.922Z,23.70
2023-02-09T02:13:23.378Z,22.80
2023-02-09T02:14:30.647Z,24.90
2023-02-09T02:15:52.647Z,25.67
2023-02-09T02:17:12.268Z,25.40
2023-02-09T02:18:27.428Z,22.25
2023-02-09T02:19:47.352Z,26.40
2023-02-09T02:21:21.586Z,26.52
2023-02-09T02:23:00.834Z,31.15
2023-02-09T02:24:37.675Z,26.13
2023-02-09T02:26:17.447Z,26.77
2023-02-09T02:27:45.879Z,24.40
2023-02-09T02:28:48.048Z,24.45
2023-02-09T02:30:04.896Z,27.02
2023-02-09T02:31:09.868Z,24.55
2023-02-09T02:32:27.797Z,28.67
2023-02-09T02:33:45.387Z,33.88
2023-02-09T02:34:58.614Z,24.55
2023-02-09T02:36:14.278Z,26.33
2023-02-09T02:37:23.802Z,27.88
2023-02-09T02:38:45.928Z,24.67
2023-02-09T02:39:59.192Z,24.70
2023-02-09T02:41:27.368Z,24.23
2023-02-09T02:42:49.890Z,26.80
2023-02-09T02:44:03.065Z,26.42
2023-02-09T02:45:13.791Z,26.15
2023-02-09T02:46:24.986Z,26.05
2023-02-09T02:47:30.725Z,26.50
2023-02-09T02:48:44.434Z,22.50
2023-02-09T02:49:54.891Z,26.35
2023-02-09T02:51:02.415Z,22.45
2023-02-09T02:52:08.193Z,26.20
2023-02-09T02:53:12.171Z,23.67
2023-02-09T02:54:21.946Z,32.72
2023-02-09T02:55:28.688Z,27.25
2023-02-09T02:56:36.400Z,24.02
2023-02-09T02:57:42.496Z,24.27
2023-02-09T02:58:47.761Z,24.00
2023-02-09T03:00:16.566Z,23.38
2023-02-09T03:01:25.022Z,22.23
2023-02-09T03:02:31.610Z,25.05
2023-02-09T03:03:36.425Z,20.25
2023-02-09T03:04:40.749Z,23.50
2023-02-09T03:05:44.604Z,22.42
2023-02-09T03:06:47.038Z,25.58
2023-02-09T03:07:50.248Z,20.13
2023-02-09T03:08:55.075Z,18.35
2023-02-09T03:09:57.470Z,22.00
2023-02-09T03:11:00.103Z,18.80
2023-02-09T03:12:16.201Z,21.48
2023-02-09T03:14:05.450Z,21.15
2023-02-09T03:15:32.434Z,22.17
2023-02-09T03:16:37.390Z,19.05
2023-02-09T03:17:48.581Z,20.92
2023-02-09T03:19:03.012Z,19.98
2023-02-09T03:20:21.022Z,19.30
2023-02-09T03:21:47.941Z,18.05
2023-02-09T03:22:58.263Z,19.65
2023-02-09T03:24:04.584Z,21.23
2023-02-09T03:25:18.667Z,20.13
2023-02-09T03:26:28.122Z,21.00
2023-02-09T03:27:57.346Z,18.48
2023-02-09T03:29:02.437Z,19.88
2023-02-09T03:30:09.431Z,20.52
2023-02-09T03:31:11.711Z,18.88
2023-02-09T03:32:15.975Z,20.63
2023-02-09T03:33:24.674Z,17.80
2023-02-09T03:34:27.552Z,18.02
2023-02-09T03:35:41.349Z,15.38
2023-02-09T03:36:49.435Z,21.42
2023-02-09T03:37:51.827Z,17.95
2023-02-09T03:38:54.434Z,19.08
2023-02-09T03:39:56.633Z,20.75
2023-02-09T03:40:58.808Z,17.58
2023-02-09T03:42:01.151Z,17.17
2023-02-09T03:43:03.356Z,16.98
2023-02-09T03:44:24.562Z,19.80
2023-02-09T03:45:26.772Z,19.42
2023-02-09T03:46:28.984Z,18.33
2023-02-09T03:47:31.395Z,15.68
2023-02-09T03:48:35.226Z,18.45
2023-02-09T03:49:39.709Z,18.60
2023-02-09T03:50:41.925Z,17.38
2023-02-09T03:51:44.208Z,17.65
2023-02-09T03:52:46.368Z,17.85
2023-02-09T03:53:48.732Z,18.75
2023-02-09T03:54:51.095Z,17.58
2023-02-09T03:55:53.310Z,17.27
2023-02-09T03:56:55.582Z,16.50
2023-02-09T03:57:57.757Z,17.20
2023-02-09T03:59:00.135Z,16.98
2023-02-09T04:00:03.511Z,17.75
2023-02-09T04:01:14.080Z,14.70
2023-02-09T04:02:16.358Z,16.63
2023-02-09T04:03:18.537Z,15.60
2023-02-09T04:04:21.656Z,15.85
2023-02-09T04:05:23.878Z,17.40
2023-02-09T04:06:26.234Z,15.38
2023-02-09T04:07:28.591Z,16.60
2023-02-09T04:08:30.762Z,17.23
2023-02-09T04:09:33.298Z,19.38
2023-02-09T04:10:35.658Z,17.75
2023-02-09T04:11:37.943Z,18.33
2023-02-09T04:12:40.307Z,14.95
2023-02-09T04:13:42.465Z,19.10
2023-02-09T04:14:44.841Z,16.58
2023-02-09T04:15:48.163Z,15.18
2023-02-09T04:16:50.582Z,16.88
2023-02-09T04:17:52.993Z,20.30
2023-02-09T04:18:55.225Z,21.65
2023-02-09T04:19:57.385Z,16.58
2023-02-09T04:20:59.985Z,18.85
2023-02-09T04:22:02.258Z,15.23
2023-02-09T04:23:04.652Z,19.92
2023-02-09T04:24:07.767Z,17.20
2023-02-09T04:25:10.102Z,14.43
2023-02-09T04:26:12.786Z,16.48
2023-02-09T04:27:14.953Z,16.52
2023-02-09T04:28:17.205Z,19.67
2023-02-09T04:29:19.643Z,18.95
2023-02-09T04:30:21.795Z,22.95
2023-02-09T04:31:24.581Z,19.48
2023-02-09T04:32:26.827Z,16.90
2023-02-09T04:33:29.347Z,17.30
2023-02-09T04:34:31.726Z,18.63
2023-02-09T04:35:34.124Z,16.02
2023-02-09T04:36:36.386Z,16.98
2023-02-09T04:37:38.555Z,18.80
2023-02-09T04:38:40.862Z,14.75
2023-02-09T04:39:43.231Z,15.20
2023-02-09T04:40:47.072Z,18.67
2023-02-09T04:41:50.421Z,15.10
2023-02-09T04:42:52.806Z,16.67
2023-02-09T04:43:55.018Z,16.65
2023-02-09T04:44:57.434Z,18.75
2023-02-09T04:46:00.301Z,18.48
2023-02-09T04:47:02.499Z,15.70
2023-02-09T04:48:05.546Z,14.25
2023-02-09T04:49:07.722Z,16.70
2023-02-09T04:50:10.582Z,20.42
2023-02-09T04:51:13.328Z,20.77
2023-02-09T04:52:16.323Z,15.15
2023-02-09T04:53:19.646Z,16.67
2023-02-09T04:54:21.807Z,15.02
2023-02-09T04:55:24.016Z,19.05
2023-02-09T04:56:26.557Z,18.00
2023-02-09T04:57:47.192Z,15.90
2023-02-09T04:59:08.102Z,17.73
2023-02-09T05:01:18.474Z,15.38
2023-02-09T05:02:20.819Z,16.83
2023-02-09T05:03:24.804Z,16.73
2023-02-09T05:04:27.189Z,19.27
2023-02-09T05:05:29.350Z,15.50
2023-02-09T05:06:31.685Z,17.40
2023-02-09T05:07:33.886Z,20.60
2023-02-09T05:08:36.361Z,17.35
2023-02-09T05:09:38.706Z,17.95
2023-02-09T05:10:40.913Z,16.63
2023-02-09T05:11:43.327Z,21.42
2023-02-09T05:12:45.888Z,17.98
2023-02-09T05:13:48.510Z,20.45
2023-02-09T05:14:50.976Z,16.60
2023-02-09T05:15:53.898Z,17.30
2023-02-09T05:16:56.313Z,20.52
2023-02-09T05:17:58.577Z,17.30
2023-02-09T05:19:00.771Z,17.05
2023-02-09T05:20:03.618Z,16.27
2023-02-09T05:21:06.083Z,15.93
2023-02-09T05:22:08.439Z,17.42
2023-02-09T05:23:11.293Z,21.15
2023-02-09T05:24:13.549Z,16.60
2023-02-09T05:25:15.767Z,18.35
2023-02-09T05:26:18.132Z,15.73
2023-02-09T05:27:20.757Z,19.92
2023-02-09T05:28:24.396Z,16.45
2023-02-09T05:29:26.661Z,17.60
2023-02-09T05:30:29.054Z,16.80
2023-02-09T05:31:31.594Z,19.50
2023-02-09T05:32:34.045Z,19.88
2023-02-09T05:33:36.252Z,17.52
2023-02-09T05:34:38.671Z,17.33
2023-02-09T05:35:40.812Z,17.33
2023-02-09T05:36:43.152Z,20.65
2023-02-09T05:37:45.495Z,18.55
2023-02-09T05:38:47.653Z,17.63
2023-02-09T05:39:51.136Z,17.77
2023-02-09T05:40:53.345Z,20.10
2023-02-09T05:42:14.456Z,17.70
2023-02-09T05:43:16.684Z,19.95
2023-02-09T05:44:18.859Z,16.77
2023-02-09T05:45:21.255Z,18.67
2023-02-09T05:46:23.422Z,16.85
2023-02-09T05:47:26.311Z,23.88
2023-02-09T05:48:29.296Z,18.02
2023-02-09T05:49:31.496Z,23.10
2023-02-09T05:50:35.676Z,18.60
2023-02-09T05:51:42.319Z,19.30
2023-02-09T05:52:45.463Z,19.48
2023-02-09T05:53:47.660Z,24.20
2023-02-09T05:54:50.034Z,21.98
2023-02-09T05:55:52.518Z,23.17
2023-02-09T05:56:54.698Z,20.27
2023-02-09T05:57:57.084Z,21.33
2023-02-09T05:58:59.314Z,18.95
2023-02-09T06:00:01.608Z,20.23
2023-02-09T06:01:14.148Z,22.05
2023-02-09T06:02:16.394Z,21.20
2023-02-09T06:03:18.822Z,24.92
2023-02-09T06:04:21.250Z,22.23
2023-02-09T06:05:23.411Z,21.80
2023-02-09T06:06:25.593Z,21.67
2023-02-09T06:07:27.893Z,20.52
2023-02-09T06:08:30.276Z,21.02
2023-02-09T06:09:32.464Z,24.90
2023-02-09T06:10:34.671Z,22.50
2023-02-09T06:11:36.886Z,20.92
2023-02-09T06:12:41.071Z,23.92
2023-02-09T06:13:43.643Z,19.77
2023-02-09T06:14:45.892Z,26.73
2023-02-09T06:15:48.103Z,20.90
2023-02-09T06:16:50.297Z,20.27
2023-02-09T06:17:52.649Z,19.38
2023-02-09T06:18:55.363Z,21.27
2023-02-09T06:19:57.569Z,18.98
2023-02-09T06:20:59.910Z,23.08
2023-02-09T06:22:02.109Z,21.90
2023-02-09T06:23:04.457Z,20.75
2023-02-09T06:24:06.669Z,23.35
2023-02-09T06:25:09.080Z,20.70
2023-02-09T06:26:13.548Z,19.05
2023-02-09T06:27:15.730Z,24.27
2023-02-09T06:28:18.292Z,21.13
2023-02-09T06:29:20.552Z,20.35
2023-02-09T06:30:22.740Z,22.40
2023-02-09T06:31:25.239Z,20.77
2023-02-09T06:32:27.558Z,24.23
2023-02-09T06:33:29.948Z,20.27
2023-02-09T06:34:32.153Z,20.70
2023-02-09T06:35:34.299Z,19.65
2023-02-09T06:36:36.720Z,19.88
2023-02-09T06:37:38.908Z,21.02
2023-02-09T06:38:41.426Z,24.38
2023-02-09T06:39:43.617Z,22.80
2023-02-09T06:40:47.335Z,20.45
2023-02-09T06:41:49.776Z,21.80
2023-02-09T06:42:52.184Z,22.27
2023-02-09T06:43:54.578Z,20.67
2023-02-09T06:44:59.471Z,21.20
2023-02-09T06:46:07.219Z,28.77
2023-02-09T06:47:09.381Z,24.45
2023-02-09T06:48:11.754Z,22.02
2023-02-09T06:49:14.176Z,22.63
2023-02-09T06:50:17.247Z,28.42
2023-02-09T06:51:19.989Z,21.90
2023-02-09T06:52:22.283Z,21.58
2023-02-09T06:53:24.488Z,22.80
2023-02-09T06:54:29.342Z,25.25
2023-02-09T06:55:32.295Z,29.25
2023-02-09T06:56:34.713Z,34.15
2023-02-09T06:57:37.185Z,26.00
2023-02-09T06:58:41.003Z,22.95
2023-02-09T06:59:43.549Z,22.13
2023-02-09T07:00:46.294Z,23.75
2023-02-09T07:01:54.812Z,23.00
2023-02-09T07:02:59.042Z,25.55
2023-02-09T07:04:01.437Z,27.70
2023-02-09T07:05:03.650Z,24.67
2023-02-09T07:06:13.701Z,28.17
2023-02-09T07:07:16.216Z,22.30
2023-02-09T07:08:18.402Z,22.13
2023-02-09T07:09:20.618Z,24.17
2023-02-09T07:10:23.103Z,25.85
2023-02-09T07:11:25.339Z,24.38
2023-02-09T07:12:27.546Z,28.77
2023-02-09T07:13:31.945Z,28.17
2023-02-09T07:14:34.398Z,26.83
2023-02-09T07:15:36.588Z,25.33
2023-02-09T07:16:38.779Z,21.60
2023-02-09T07:17:42.246Z,21.30
2023-02-09T07:18:44.654Z,26.27
2023-02-09T07:19:47.073Z,27.83
2023-02-09T07:21:00.507Z,22.42
2023-02-09T07:22:02.748Z,24.95
2023-02-09T07:23:05.329Z,23.85
2023-02-09T07:24:07.568Z,25.35
2023-02-09T07:25:09.936Z,28.10
2023-02-09T07:26:16.857Z,24.67
2023-02-09T07:27:19.596Z,24.60
2023-02-09T07:28:22.008Z,21.42
2023-02-09T07:29:24.402Z,22.88
2023-02-09T07:30:26.746Z,22.85
2023-02-09T07:31:29.260Z,23.77
2023-02-09T07:32:31.627Z,25.27
2023-02-09T07:33:34.770Z,21.80
2023-02-09T07:34:37.832Z,21.50
2023-02-09T07:35:40.844Z,20.70
2023-02-09T07:36:47.631Z,23.33
2023-02-09T07:37:50.089Z,25.77
2023-02-09T07:38:52.364Z,21.73
2023-02-09T07:39:54.943Z,24.42
2023-02-09T07:41:01.310Z,21.67
2023-02-09T07:42:03.539Z,19.83
2023-02-09T07:43:23.332Z,20.63
2023-02-09T07:44:25.988Z,19.40
2023-02-09T07:45:28.557Z,19.92
2023-02-09T07:46:30.792Z,24.98
2023-02-09T07:47:35.000Z,20.98
2023-02-09T07:48:37.833Z,19.30
2023-02-09T07:49:39.999Z,28.08
2023-02-09T07:50:49.334Z,27.73
2023-02-09T07:51:51.560Z,21.23
2023-02-09T07:52:54.589Z,23.48
2023-02-09T07:53:58.614Z,26.75
2023-02-09T07:55:01.176Z,23.77
2023-02-09T07:56:05.466Z,25.48
2023-02-09T07:57:07.630Z,20.60
2023-02-09T07:58:09.848Z,22.63
2023-02-09T07:59:12.196Z,24.02
2023-02-09T08:00:15.286Z,20.85
2023-02-09T08:01:18.322Z,23.75
2023-02-09T08:02:28.552Z,19.55
2023-02-09T08:03:31.125Z,19.25
2023-02-09T08:04:33.327Z,29.30
2023-02-09T08:05:42.959Z,20.58
2023-02-09T08:06:46.388Z,20.52
2023-02-09T08:07:48.883Z,23.33
2023-02-09T08:08:52.384Z,19.15
2023-02-09T08:09:54.954Z,21.70
2023-02-09T08:11:00.703Z,21.10
2023-02-09T08:12:05.629Z,19.85
2023-02-09T08:13:08.427Z,17.48
2023-02-09T08:14:34.706Z,19.05
2023-02-09T08:15:45.055Z,18.13
2023-02-09T08:16:49.092Z,23.05
2023-02-09T08:17:54.488Z,21.73
2023-02-09T08:19:12.193Z,18.98
2023-02-09T08:20:23.594Z,19.92
2023-02-09T08:21:28.087Z,21.42
2023-02-09T08:22:33.500Z,22.08
2023-02-09T08:23:38.410Z,21.77
2023-02-09T08:24:42.818Z,21.50
2023-02-09T08:25:45.342Z,21.85
2023-02-09T08:26:48.044Z,18.27
2023-02-09T08:27:50.984Z,20.10
2023-02-09T08:28:54.045Z,23.80
2023-02-09T08:29:58.600Z,18.52
2023-02-09T08:31:00.784Z,23.08
2023-02-09T08:32:03.302Z,18.90
2023-02-09T08:33:05.518Z,22.40
2023-02-09T08:34:07.760Z,17.70
2023-02-09T08:35:11.279Z,15.70
2023-02-09T08:36:14.443Z,26.50
2023-02-09T08:37:17.076Z,18.17
2023-02-09T08:38:20.264Z,17.13
2023-02-09T08:39:22.429Z,19.40
2023-02-09T08:40:24.694Z,18.40
2023-02-09T08:41:27.504Z,25.20
2023-02-09T08:42:29.685Z,19.13
2023-02-09T08:43:32.313Z,17.83
2023-02-09T08:44:34.604Z,16.45
2023-02-09T08:45:38.217Z,17.00
2023-02-09T08:46:40.815Z,13.38
2023-02-09T08:47:43.110Z,18.85
2023-02-09T08:48:47.206Z,16.25
2023-02-09T08:49:51.048Z,19.50
2023-02-09T08:50:53.292Z,19.98
2023-02-09T08:51:55.489Z,21.42
2023-02-09T08:52:58.054Z,19.67
2023-02-09T08:54:00.453Z,19.88
2023-02-09T08:55:02.748Z,20.55
2023-02-09T08:56:05.439Z,18.98
2023-02-09T08:57:07.644Z,19.20
2023-02-09T08:58:10.116Z,17.88
2023-02-09T08:59:12.617Z,17.42
2023-02-09T09:00:15.637Z,16.73
2023-02-09T09:01:18.093Z,18.42
2023-02-09T09:02:20.684Z,19.25
2023-02-09T09:03:27.749Z,14.38
2023-02-09T09:04:30.278Z,15.88
2023-02-09T09:05:35.172Z,20.85
2023-02-09T09:06:37.366Z,18.98
2023-02-09T09:07:39.628Z,20.42
2023-02-09T09:08:41.841Z,21.55
2023-02-09T09:09:44.302Z,23.77
2023-02-09T09:10:46.451Z,15.70
2023-02-09T09:11:48.644Z,16.80
2023-02-09T09:12:51.800Z,18.77
2023-02-09T09:13:53.983Z,16.20
2023-02-09T09:14:56.250Z,17.67
2023-02-09T09:15:58.459Z,25.17
2023-02-09T09:17:00.940Z,23.27
2023-02-09T09:18:03.183Z,16.08
2023-02-09T09:19:05.706Z,16.90
2023-02-09T09:20:08.398Z,17.50
2023-02-09T09:21:12.447Z,21.08
2023-02-09T09:22:14.833Z,14.70
2023-02-09T09:23:18.359Z,18.67
2023-02-09T09:24:23.230Z,18.80
2023-02-09T09:25:25.379Z,17.13
2023-02-09T09:26:27.856Z,17.35
2023-02-09T09:27:32.915Z,22.52
2023-02-09T09:28:35.238Z,21.92
2023-02-09T09:29:40.024Z,18.42
2023-02-09T09:30:42.191Z,13.90
2023-02-09T09:31:44.852Z,20.65
2023-02-09T09:32:47.114Z,22.45
2023-02-09T09:33:49.359Z,15.98
2023-02-09T09:34:57.487Z,15.93
2023-02-09T09:36:01.362Z,17.50
2023-02-09T09:37:03.908Z,21.80
2023-02-09T09:38:06.099Z,16.75
2023-02-09T09:39:08.250Z,13.48
2023-02-09T09:40:20.132Z,20.10
2023-02-09T09:41:26.986Z,17.88
2023-02-09T09:42:38.286Z,20.40
2023-02-09T09:43:41.320Z,25.23
2023-02-09T09:44:47.207Z,31.38
2023-02-09T09:45:50.634Z,18.13
2023-02-09T09:46:54.414Z,17.35
2023-02-09T09:47:57.187Z,14.32
2023-02-09T09:49:00.062Z,14.38
2023-02-09T09:50:04.169Z,13.50
2023-02-09T09:51:47.405Z,15.77
2023-02-09T09:53:01.068Z,14.77
2023-02-09T09:54:06.402Z,19.58
2023-02-09T09:55:13.853Z,14.05
2023-02-09T09:56:19.645Z,17.77
2023-02-09T09:57:25.856Z,19.45
2023-02-09T09:58:30.156Z,15.38
2023-02-09T09:59:38.706Z,18.88
2023-02-09T10:00:42.423Z,14.45
2023-02-09T10:01:45.187Z,18.00
2023-02-09T10:02:47.550Z,22.35
2023-02-09T10:03:49.769Z,19.77
2023-02-09T10:04:52.236Z,22.95
2023-02-09T10:06:00.539Z,20.63
2023-02-09T10:07:17.016Z,21.00
2023-02-09T10:08:28.872Z,16.73
2023-02-09T10:09:53.057Z,14.35
2023-02-09T10:11:10.930Z,31.42
2023-02-09T10:12:28.169Z,21.20
2023-02-09T10:13:54.785Z,15.07
2023-02-09T10:14:57.050Z,16.63
2023-02-09T10:15:59.724Z,17.40
2023-02-09T10:17:02.010Z,13.65
2023-02-09T10:18:13.017Z,14.07
2023-02-09T10:20:43.788Z,16.38
2023-02-09T10:21:46.544Z,17.85
2023-02-09T10:22:52.039Z,17.30
2023-02-09T10:24:00.035Z,18.75
2023-02-09T10:25:03.893Z,23.25
2023-02-09T10:26:08.916Z,21.23
2023-02-09T10:27:14.321Z,20.25
2023-02-09T10:28:24.516Z,22.20
2023-02-09T10:29:26.927Z,15.98
2023-02-09T10:30:29.724Z,15.50
2023-02-09T10:31:51.048Z,16.38
2023-02-09T10:32:53.535Z,18.52
2023-02-09T10:34:04.323Z,18.65
2023-02-09T10:36:35.745Z,17.58
2023-02-09T10:37:39.121Z,20.33
2023-02-09T10:38:41.417Z,29.08
2023-02-09T10:39:45.095Z,18.58
2023-02-09T10:40:48.815Z,18.70
2023-02-09T10:41:54.306Z,21.67
2023-02-09T10:42:59.672Z,19.02
2023-02-09T10:44:14.677Z,19.55
2023-02-09T10:45:39.911Z,22.58
2023-02-09T10:46:42.175Z,14.80
2023-02-09T10:47:57.737Z,19.58
2023-02-09T10:49:00.538Z,19.10
2023-02-09T10:50:11.591Z,21.50
2023-02-09T10:51:29.178Z,26.25
2023-02-09T10:52:37.257Z,25.13
2023-02-09T10:53:56.909Z,19.77
2023-02-09T10:55:40.393Z,32.22
2023-02-09T10:56:42.525Z,26.48
2023-02-09T10:57:44.770Z,18.02
2023-02-09T10:58:52.190Z,16.05
2023-02-09T11:00:00.499Z,28.13
2023-02-09T11:01:11.699Z,22.45
2023-02-09T11:02:37.634Z,21.33
2023-02-09T11:04:25.445Z,22.60
2023-02-09T11:05:34.163Z,17.05
2023-02-09T11:06:46.842Z,15.93
2023-02-09T11:08:00.153Z,17.20
2023-02-09T11:09:17.504Z,19.55
2023-02-09T11:10:20.568Z,16.95
2023-02-09T11:11:28.926Z,21.48
2023-02-09T11:12:31.469Z,20.17
2023-02-09T11:13:35.185Z,18.48
2023-02-09T11:14:37.581Z,18.48
2023-02-09T11:15:46.408Z,19.08
2023-02-09T11:16:56.126Z,18.92
2023-02-09T11:18:05.688Z,13.80
2023-02-09T11:19:19.676Z,16.20
2023-02-09T11:20:40.557Z,13.32
2023-02-09T11:22:01.102Z,16.25
2023-02-09T11:23:41.141Z,19.67
2023-02-09T11:24:57.038Z,23.15
2023-02-09T11:26:11.468Z,19.52
2023-02-09T11:27:36.313Z,18.40
2023-02-09T11:28:50.728Z,15.45
2023-02-09T11:30:30.009Z,15.25
2023-02-09T11:31:50.727Z,16.83
2023-02-09T11:33:00.938Z,15.40
2023-02-09T11:34:19.632Z,17.23
2023-02-09T11:35:54.688Z,14.43
2023-02-09T11:37:16.418Z,22.20
2023-02-09T11:38:31.282Z,14.90
2023-02-09T11:39:58.539Z,18.90
2023-02-09T11:41:27.622Z,14.73
2023-02-09T11:42:45.389Z,19.08
2023-02-09T11:43:50.020Z,15.50
2023-02-09T11:44:56.612Z,16.88
2023-02-09T11:46:03.643Z,16.83
2023-02-09T11:47:14.246Z,17.30
2023-02-09T11:48:19.223Z,14.13
2023-02-09T11:49:25.571Z,16.60
2023-02-09T11:50:33.449Z,18.75
2023-02-09T11:51:39.513Z,18.65
2023-02-09T11:52:52.607Z,15.25
2023-02-09T11:54:07.975Z,14.85
2023-02-09T11:55:28.560Z,13.90
2023-02-09T11:56:34.841Z,24.02
2023-02-09T11:57:48.600Z,12.38
2023-02-09T11:58:57.147Z,15.55
2023-02-09T12:00:03.230Z,17.30
2023-02-09T12:01:28.999Z,19.52
2023-02-09T12:02:46.226Z,15.75
2023-02-09T12:03:59.192Z,12.52
2023-02-09T12:05:02.749Z,15.95
2023-02-09T12:06:05.841Z,13.63
2023-02-09T12:07:23.081Z,12.10
2023-02-09T12:08:34.314Z,11.95
2023-02-09T12:09:55.925Z,29.85
2023-02-09T12:11:07.284Z,17.85
2023-02-09T12:12:09.374Z,10.88
2023-02-09T12:13:28.411Z,15.73
2023-02-09T12:14:49.304Z,13.48
2023-02-09T12:15:57.407Z,17.17
2023-02-09T12:17:10.225Z,25.45
2023-02-09T12:18:19.512Z,19.48
2023-02-09T12:19:37.393Z,16.33
2023-02-09T12:20:55.751Z,23.85
2023-02-09T12:21:58.132Z,14.13
2023-02-09T12:23:18.386Z,18.70
2023-02-09T12:24:37.999Z,18.77
2023-02-09T12:25:51.894Z,14.80
2023-02-09T12:26:56.237Z,15.75
2023-02-09T12:28:10.325Z,14.65
2023-02-09T12:29:35.150Z,14.10
2023-02-09T12:30:40.147Z,19.45
2023-02-09T12:32:04.451Z,12.43
2023-02-09T12:33:24.983Z,11.50
2023-02-09T12:34:53.052Z,13.43
2023-02-09T12:36:01.107Z,15.52
2023-02-09T12:37:17.322Z,13.85
2023-02-09T12:38:20.005Z,26.60
2023-02-09T12:39:25.447Z,13.52
2023-02-09T12:40:37.187Z,15.43
2023-02-09T12:41:41.891Z,11.30
2023-02-09T12:43:25.334Z,16.27
2023-02-09T12:44:27.484Z,17.65
2023-02-09T12:45:43.732Z,16.52
2023-02-09T12:46:47.779Z,12.80
2023-02-09T12:48:11.598Z,12.30
2023-02-09T12:49:13.772Z,15.20
2023-02-09T12:50:26.884Z,15.57
2023-02-09T12:51:55.208Z,19.23
2023-02-09T12:53:22.645Z,14.43
2023-02-09T12:54:36.341Z,12.95
2023-02-09T12:55:38.723Z,12.90
2023-02-09T12:56:40.947Z,13.20
2023-02-09T12:58:01.420Z,13.93
2023-02-09T12:59:14.585Z,12.50
2023-02-09T13:00:17.632Z,12.60
2023-02-09T13:01:19.992Z,10.23
2023-02-09T13:02:52.039Z,10.07
2023-02-09T13:04:03.614Z,10.07
2023-02-09T13:05:26.011Z,11.25
2023-02-09T13:06:58.326Z,12.80
2023-02-09T13:08:06.241Z,14.00
2023-02-09T13:09:16.073Z,10.57
2023-02-09T13:10:21.385Z,11.65
2023-02-09T13:11:40.634Z,10.80
2023-02-09T13:12:48.897Z,18.23
2023-02-09T13:14:07.840Z,22.85
2023-02-09T13:15:15.747Z,14.32
2023-02-09T13:16:23.948Z,16.75
2023-02-09T13:17:57.844Z,14.10
2023-02-09T13:19:23.084Z,13.05
2023-02-09T13:20:37.723Z,8.88
2023-02-09T13:22:04.874Z,11.38
2023-02-09T13:23:21.790Z,12.85
2023-02-09T13:25:14.968Z,17.63
2023-02-09T13:26:23.204Z,19.13
2023-02-09T13:27:27.737Z,17.05
2023-02-09T13:28:29.986Z,10.48
2023-02-09T13:29:33.145Z,14.82
2023-02-09T13:30:35.628Z,12.07
2023-02-09T13:31:43.314Z,12.30
2023-02-09T13:32:51.699Z,16.15
2023-02-09T13:34:02.471Z,13.60
2023-02-09T13:36:34.336Z,14.80
2023-02-09T13:37:58.553Z,15.63
2023-02-09T13:39:01.045Z,17.48
2023-02-09T13:40:25.231Z,7.30
2023-02-09T13:41:35.570Z,13.13
2023-02-09T13:42:50.399Z,9.90
2023-02-09T13:43:53.195Z,9.23
2023-02-09T13:44:58.333Z,9.38
2023-02-09T13:46:02.076Z,9.20
2023-02-09T13:47:07.810Z,9.18
2023-02-09T13:48:22.953Z,8.95
2023-02-09T13:49:26.946Z,10.18
2023-02-09T13:50:29.502Z,13.70
2023-02-09T13:51:31.708Z,13.30
2023-02-09T13:52:38.808Z,11.13
2023-02-09T13:53:41.489Z,21.45
2023-02-09T13:54:43.969Z,12.55
2023-02-09T13:55:48.543Z,10.95
2023-02-09T13:56:51.448Z,8.77
2023-02-09T13:58:02.076Z,10.07
2023-02-09T13:59:04.531Z,7.78
2023-02-09T14:00:21.908Z,10.02
2023-02-09T14:01:37.274Z,8.23
2023-02-09T14:02:39.664Z,9.73
2023-02-09T14:03:58.192Z,10.88
2023-02-09T14:05:03.959Z,10.07
2023-02-09T14:06:14.976Z,10.38
2023-02-09T14:08:22.347Z,20.52
2023-02-09T14:09:29.721Z,18.70
2023-02-09T14:10:34.530Z,17.67
2023-02-09T14:11:52.839Z,20.52
2023-02-09T14:13:06.602Z,13.88
2023-02-09T14:14:27.219Z,16.42
2023-02-09T14:15:58.546Z,19.48
2023-02-09T14:17:25.519Z,18.95
2023-02-09T14:18:35.802Z,8.15
2023-02-09T14:19:38.635Z,11.38
2023-02-09T14:20:42.986Z,19.77
2023-02-09T14:21:45.965Z,10.18
2023-02-09T14:23:00.196Z,10.18
2023-02-09T14:24:22.242Z,9.50
2023-02-09T14:25:29.710Z,11.55
2023-02-09T14:27:18.860Z,8.10
2023-02-09T14:28:21.287Z,9.65
2023-02-09T14:29:35.535Z,10.77
2023-02-09T14:30:48.792Z,9.70
2023-02-09T14:32:31.978Z,10.10
2023-02-09T14:33:37.435Z,10.02